sensor_id;sensor_type;location;lat;lon;timestamp;pressure;altitude;pressure_sealevel;temperature;humidity
45941;BME280;31858;46.008;8.978;2023-02-20T00:06:52;95188.50;;;8.16;100.00
45941;BME280;31858;46.008;8.978;2023-02-20T00:16:55;95189.31;;;8.05;100.00
45941;BME280;31858;46.008;8.978;2023-02-20T00:26:57;95196.66;;;7.96;100.00
45941;BME280;31858;46.008;8.978;2023-02-20T00:37:00;95191.66;;;7.78;100.00
45941;BME280;31858;46.008;8.978;2023-02-20T00:47:01;95188.81;;;7.71;100.00
45941;BME280;31858;46.008;8.978;2023-02-20T00:57:04;95193.94;;;7.52;100.00
45941;BME280;31858;46.008;8.978;2023-02-20T01:07:06;95198.41;;;7.36;100.00
45941;BME280;31858;46.008;8.978;2023-02-20T01:17:11;95203.94;;;7.31;100.00
45941;BME280;31858;46.008;8.978;2023-02-20T01:27:13;95205.91;;;7.34;100.00
45941;BME280;31858;46.008;8.978;2023-02-20T01:37:16;95206.69;;;7.22;100.00
45941;BME280;31858;46.008;8.978;2023-02-20T01:47:19;95205.38;;;7.28;100.00
45941;BME280;31858;46.008;8.978;2023-02-20T01:57:24;95213.53;;;7.23;100.00
45941;BME280;31858;46.008;8.978;2023-02-20T02:07:28;95212.44;;;7.00;100.00
45941;BME280;31858;46.008;8.978;2023-02-20T02:17:44;95204.06;;;6.85;100.00
45941;BME280;31858;46.008;8.978;2023-02-20T02:28:23;95216.75;;;6.92;100.00
45941;BME280;31858;46.008;8.978;2023-02-20T02:38:37;95214.53;;;6.82;100.00
45941;BME280;31858;46.008;8.978;2023-02-20T02:48:48;95220.72;;;6.86;100.00
45941;BME280;31858;46.008;8.978;2023-02-20T02:58:56;95224.13;;;6.74;100.00
45941;BME280;31858;46.008;8.978;2023-02-20T03:09:02;95221.16;;;6.88;100.00
45941;BME280;31858;46.008;8.978;2023-02-20T03:19:09;95239.75;;;6.55;100.00
45941;BME280;31858;46.008;8.978;2023-02-20T03:29:15;95238.88;;;6.51;100.00
45941;BME280;31858;46.008;8.978;2023-02-20T03:39:28;95255.19;;;6.41;100.00
45941;BME280;31858;46.008;8.978;2023-02-20T03:49:49;95254.81;;;6.30;100.00
45941;BME280;31858;46.008;8.978;2023-02-20T03:59:57;95270.72;;;6.30;100.00
45941;BME280;31858;46.008;8.978;2023-02-20T04:10:03;95279.69;;;6.17;100.00
45941;BME280;31858;46.008;8.978;2023-02-20T04:20:09;95284.34;;;6.20;100.00
45941;BME280;31858;46.008;8.978;2023-02-20T04:30:11;95295.84;;;6.03;100.00
45941;BME280;31858;46.008;8.978;2023-02-20T04:40:17;95309.13;;;5.95;100.00
45941;BME280;31858;46.008;8.978;2023-02-20T04:50:21;95312.91;;;5.85;100.00
45941;BME280;31858;46.008;8.978;2023-02-20T05:00:26;95315.16;;;5.74;100.00
45941;BME280;31858;46.008;8.978;2023-02-20T05:10:29;95324.41;;;5.60;100.00
45941;BME280;31858;46.008;8.978;2023-02-20T05:20:32;95351.69;;;5.43;100.00
45941;BME280;31858;46.008;8.978;2023-02-20T05:30:51;95375.81;;;5.41;100.00
45941;BME280;31858;46.008;8.978;2023-02-20T05:40:54;95406.16;;;5.27;100.00
45941;BME280;31858;46.008;8.978;2023-02-20T05:50:55;95417.03;;;5.34;100.00
45941;BME280;31858;46.008;8.978;2023-02-20T06:00:58;95437.81;;;5.44;100.00
45941;BME280;31858;46.008;8.978;2023-02-20T06:11:00;95452.88;;;5.52;100.00
45941;BME280;31858;46.008;8.978;2023-02-20T06:21:06;95469.50;;;5.61;100.00
45941;BME280;31858;46.008;8.978;2023-02-20T06:31:08;95477.25;;;5.66;100.00
45941;BME280;31858;46.008;8.978;2023-02-20T06:41:11;95487.34;;;5.73;100.00
45941;BME280;31858;46.008;8.978;2023-02-20T06:51:15;95492.16;;;5.79;100.00
45941;BME280;31858;46.008;8.978;2023-02-20T07:01:19;95502.72;;;5.79;100.00
45941;BME280;31858;46.008;8.978;2023-02-20T07:11:22;95513.28;;;5.79;100.00
45941;BME280;31858;46.008;8.978;2023-02-20T07:21:25;95520.19;;;5.63;100.00
45941;BME280;31858;46.008;8.978;2023-02-20T07:31:27;95531.72;;;5.58;100.00
45941;BME280;31858;46.008;8.978;2023-02-20T07:41:30;95530.31;;;5.52;100.00
45941;BME280;31858;46.008;8.978;2023-02-20T07:51:32;95543.06;;;5.59;100.00
45941;BME280;31858;46.008;8.978;2023-02-20T08:01:35;95541.47;;;5.75;100.00
45941;BME280;31858;46.008;8.978;2023-02-20T08:11:37;95537.88;;;5.80;100.00
45941;BME280;31858;46.008;8.978;2023-02-20T08:21:39;95534.16;;;5.89;100.00
45941;BME280;31858;46.008;8.978;2023-02-20T08:31:41;95527.59;;;5.87;100.00
45941;BME280;31858;46.008;8.978;2023-02-20T08:41:45;95532.28;;;5.81;100.00
45941;BME280;31858;46.008;8.978;2023-02-20T08:51:48;95527.25;;;6.06;100.00
45941;BME280;31858;46.008;8.978;2023-02-20T09:01:54;95526.53;;;6.26;100.00
45941;BME280;31858;46.008;8.978;2023-02-20T09:11:55;95521.97;;;6.35;100.00
45941;BME280;31858;46.008;8.978;2023-02-20T09:21:58;95510.56;;;6.43;100.00
45941;BME280;31858;46.008;8.978;2023-02-20T09:32:00;95508.28;;;6.54;100.00
45941;BME280;31858;46.008;8.978;2023-02-20T09:42:11;95513.44;;;6.50;100.00
45941;BME280;31858;46.008;8.978;2023-02-20T09:52:16;95512.69;;;6.50;100.00
45941;BME280;31858;46.008;8.978;2023-02-20T10:02:23;95517.25;;;6.62;100.00
45941;BME280;31858;46.008;8.978;2023-02-20T10:12:31;95516.34;;;6.58;100.00
45941;BME280;31858;46.008;8.978;2023-02-20T10:22:44;95516.88;;;6.72;100.00
45941;BME280;31858;46.008;8.978;2023-02-20T10:32:52;95505.19;;;6.94;100.00
45941;BME280;31858;46.008;8.978;2023-02-20T10:43:01;95491.59;;;7.16;100.00
45941;BME280;31858;46.008;8.978;2023-02-20T10:53:12;95475.16;;;7.56;100.00
45941;BME280;31858;46.008;8.978;2023-02-20T11:03:22;95462.47;;;7.85;100.00
45941;BME280;31858;46.008;8.978;2023-02-20T11:13:25;95448.00;;;8.07;100.00
45941;BME280;31858;46.008;8.978;2023-02-20T11:23:49;95427.41;;;8.16;100.00
45941;BME280;31858;46.008;8.978;2023-02-20T11:33:53;95410.69;;;8.28;100.00
45941;BME280;31858;46.008;8.978;2023-02-20T11:44:16;95391.69;;;8.38;100.00
45941;BME280;31858;46.008;8.978;2023-02-20T11:54:20;95376.69;;;8.58;100.00
45941;BME280;31858;46.008;8.978;2023-02-20T12:04:23;95374.84;;;8.74;100.00
45941;BME280;31858;46.008;8.978;2023-02-20T12:14:26;95359.00;;;8.78;100.00
45941;BME280;31858;46.008;8.978;2023-02-20T12:24:49;95345.06;;;8.97;100.00
45941;BME280;31858;46.008;8.978;2023-02-20T12:35:09;95326.47;;;9.12;100.00
45941;BME280;31858;46.008;8.978;2023-02-20T12:45:22;95308.53;;;9.25;100.00
45941;BME280;31858;46.008;8.978;2023-02-20T12:55:31;95284.84;;;9.52;100.00
45941;BME280;31858;46.008;8.978;2023-02-20T13:05:40;95261.59;;;9.84;100.00
45941;BME280;31858;46.008;8.978;2023-02-20T13:15:48;95258.75;;;10.11;100.00
45941;BME280;31858;46.008;8.978;2023-02-20T13:25:54;95251.03;;;10.45;100.00
45941;BME280;31858;46.008;8.978;2023-02-20T13:35:57;95230.44;;;10.42;100.00
45941;BME280;31858;46.008;8.978;2023-02-20T13:46:13;95216.53;;;10.52;100.00
45941;BME280;31858;46.008;8.978;2023-02-20T13:56:18;95206.94;;;10.70;100.00
45941;BME280;31858;46.008;8.978;2023-02-20T14:06:21;95194.03;;;10.95;100.00
45941;BME280;31858;46.008;8.978;2023-02-20T14:16:27;95175.47;;;11.02;100.00
45941;BME280;31858;46.008;8.978;2023-02-20T14:26:31;95171.53;;;11.19;100.00
45941;BME280;31858;46.008;8.978;2023-02-20T14:36:47;95168.88;;;11.19;100.00
45941;BME280;31858;46.008;8.978;2023-02-20T14:46:55;95166.94;;;11.16;100.00
45941;BME280;31858;46.008;8.978;2023-02-20T14:56:59;95151.06;;;11.00;100.00
45941;BME280;31858;46.008;8.978;2023-02-20T15:07:05;95153.84;;;11.07;100.00
45941;BME280;31858;46.008;8.978;2023-02-20T15:17:19;95159.69;;;10.90;100.00
45941;BME280;31858;46.008;8.978;2023-02-20T15:27:22;95163.56;;;10.96;100.00
45941;BME280;31858;46.008;8.978;2023-02-20T15:37:27;95161.31;;;10.98;100.00
45941;BME280;31858;46.008;8.978;2023-02-20T15:47:31;95161.69;;;10.97;100.00
45941;BME280;31858;46.008;8.978;2023-02-20T15:57:32;95169.88;;;10.85;100.00
45941;BME280;31858;46.008;8.978;2023-02-20T16:07:35;95168.75;;;10.63;100.00
45941;BME280;31858;46.008;8.978;2023-02-20T16:17:37;95167.91;;;10.59;100.00
45941;BME280;31858;46.008;8.978;2023-02-20T16:27:40;95167.81;;;10.52;100.00
45941;BME280;31858;46.008;8.978;2023-02-20T16:37:43;95170.34;;;10.44;100.00
45941;BME280;31858;46.008;8.978;2023-02-20T16:47:49;95171.72;;;10.35;100.00
45941;BME280;31858;46.008;8.978;2023-02-20T16:57:52;95180.84;;;10.14;100.00
45941;BME280;31858;46.008;8.978;2023-02-20T17:07:56;95181.63;;;9.96;100.00
45941;BME280;31858;46.008;8.978;2023-02-20T17:17:58;95195.13;;;9.87;100.00
45941;BME280;31858;46.008;8.978;2023-02-20T17:28:01;95196.94;;;10.02;100.00
45941;BME280;31858;46.008;8.978;2023-02-20T17:38:03;95190.00;;;9.59;100.00
45941;BME280;31858;46.008;8.978;2023-02-20T17:48:06;95195.31;;;9.59;100.00
45941;BME280;31858;46.008;8.978;2023-02-20T17:58:08;95204.16;;;9.12;100.00
45941;BME280;31858;46.008;8.978;2023-02-20T18:08:11;95204.50;;;9.11;100.00
45941;BME280;31858;46.008;8.978;2023-02-20T18:18:12;95214.06;;;8.80;100.00
45941;BME280;31858;46.008;8.978;2023-02-20T18:28:16;95209.44;;;8.93;100.00
45941;BME280;31858;46.008;8.978;2023-02-20T18:38:18;95206.34;;;8.75;100.00
45941;BME280;31858;46.008;8.978;2023-02-20T18:48:21;95202.91;;;8.59;100.00
45941;BME280;31858;46.008;8.978;2023-02-20T18:58:22;95188.66;;;8.36;100.00
45941;BME280;31858;46.008;8.978;2023-02-20T19:08:28;95188.31;;;8.09;100.00
45941;BME280;31858;46.008;8.978;2023-02-20T19:18:29;95190.28;;;8.12;100.00
45941;BME280;31858;46.008;8.978;2023-02-20T19:28:32;95188.28;;;7.94;100.00
45941;BME280;31858;46.008;8.978;2023-02-20T19:38:34;95190.19;;;7.81;100.00
45941;BME280;31858;46.008;8.978;2023-02-20T19:48:39;95192.78;;;7.77;100.00
45941;BME280;31858;46.008;8.978;2023-02-20T19:58:40;95192.56;;;7.70;100.00
45941;BME280;31858;46.008;8.978;2023-02-20T20:08:43;95206.88;;;7.81;100.00
45941;BME280;31858;46.008;8.978;2023-02-20T20:18:46;95202.00;;;7.83;100.00
45941;BME280;31858;46.008;8.978;2023-02-20T20:28:49;95196.38;;;7.57;100.00
45941;BME280;31858;46.008;8.978;2023-02-20T20:38:50;95182.63;;;7.67;100.00
45941;BME280;31858;46.008;8.978;2023-02-20T20:48:53;95188.22;;;7.50;100.00
45941;BME280;31858;46.008;8.978;2023-02-20T20:58:55;95191.75;;;7.54;100.00
45941;BME280;31858;46.008;8.978;2023-02-20T21:08:58;95176.72;;;7.46;100.00
45941;BME280;31858;46.008;8.978;2023-02-20T21:18:59;95182.50;;;7.24;100.00
45941;BME280;31858;46.008;8.978;2023-02-20T21:29:02;95184.94;;;7.16;100.00
45941;BME280;31858;46.008;8.978;2023-02-20T21:39:04;95187.03;;;7.11;100.00
45941;BME280;31858;46.008;8.978;2023-02-20T21:49:07;95188.47;;;7.20;100.00
45941;BME280;31858;46.008;8.978;2023-02-20T21:59:09;95170.25;;;7.19;100.00
45941;BME280;31858;46.008;8.978;2023-02-20T22:09:13;95167.28;;;7.20;100.00
45941;BME280;31858;46.008;8.978;2023-02-20T22:19:33;95147.53;;;7.06;100.00
45941;BME280;31858;46.008;8.978;2023-02-20T22:29:53;95143.69;;;6.91;100.00
45941;BME280;31858;46.008;8.978;2023-02-20T22:40:12;95137.03;;;6.97;100.00
45941;BME280;31858;46.008;8.978;2023-02-20T22:50:33;95124.91;;;6.96;100.00
45941;BME280;31858;46.008;8.978;2023-02-20T23:00:52;95106.56;;;7.03;100.00
45941;BME280;31858;46.008;8.978;2023-02-20T23:11:12;95104.16;;;6.86;100.00
45941;BME280;31858;46.008;8.978;2023-02-20T23:21:31;95086.06;;;6.76;100.00
45941;BME280;31858;46.008;8.978;2023-02-20T23:31:51;95084.63;;;6.78;100.00
45941;BME280;31858;46.008;8.978;2023-02-20T23:42:10;95079.91;;;6.72;100.00
45941;BME280;31858;46.008;8.978;2023-02-20T23:52:30;95068.97;;;6.73;100.00
